createdAt,value
2019-06-07T00:00:49.080Z,100770.00
2019-06-07T00:03:29.027Z,100759.41
2019-06-07T00:05:49.572Z,100759.77
2019-06-07T00:08:24.979Z,100758.81
2019-06-07T00:10:49.519Z,100748.45
2019-06-07T00:13:20.371Z,100705.14
2019-06-07T00:15:50.051Z,100748.69
2019-06-07T00:18:25.190Z,100748.98
2019-06-07T00:20:50.393Z,100751.25
2019-06-07T00:23:22.175Z,100700.62
2019-06-07T00:25:50.809Z,100746.59
2019-06-07T00:28:20.183Z,100745.30
2019-06-07T00:30:52.035Z,100750.45
2019-06-07T00:33:24.063Z,100752.15
2019-06-07T00:35:51.655Z,100747.68
2019-06-07T00:38:21.972Z,100751.47
2019-06-07T00:40:51.639Z,100752.55
2019-06-07T00:43:28.059Z,100754.16
2019-06-07T00:45:51.666Z,100749.58
2019-06-07T00:48:30.835Z,100755.34
2019-06-07T00:50:51.964Z,100763.06
2019-06-07T00:53:31.075Z,100754.87
2019-06-07T00:55:52.547Z,100762.61
2019-06-07T00:58:27.274Z,100754.09
2019-06-07T01:00:52.934Z,100751.28
2019-06-07T01:03:25.294Z,100757.55
2019-06-07T01:05:53.434Z,100760.86
2019-06-07T01:08:28.152Z,100755.23
2019-06-07T01:10:54.451Z,100757.91
2019-06-07T01:13:26.567Z,100757.97
2019-06-07T01:15:55.016Z,100759.23
2019-06-07T01:18:46.154Z,100759.23
2019-06-07T01:20:55.389Z,100760.61
2019-06-07T01:23:59.830Z,100751.89
2019-06-07T01:25:56.032Z,100744.97
2019-06-07T01:28:27.086Z,100754.85
2019-06-07T01:30:56.426Z,100749.02
2019-06-07T01:33:46.410Z,100753.48
2019-06-07T01:35:56.607Z,100744.67
2019-06-07T01:38:26.869Z,100741.36
2019-06-07T01:40:56.489Z,100747.20
2019-06-07T01:43:27.066Z,100746.37
2019-06-07T01:45:56.808Z,100747.53
2019-06-07T01:48:38.721Z,100746.20
2019-06-07T01:50:56.768Z,100741.09
2019-06-07T01:53:28.507Z,100739.98
2019-06-07T01:55:57.027Z,100730.88
2019-06-07T01:58:28.760Z,100731.95
2019-06-07T02:00:57.558Z,100727.72
2019-06-07T02:03:32.184Z,100715.55
2019-06-07T02:05:57.889Z,100716.40
2019-06-07T02:08:30.275Z,100714.58
2019-06-07T02:10:58.353Z,100715.68
2019-06-07T02:13:29.336Z,100713.45
2019-06-07T02:15:58.710Z,100710.09
2019-06-07T02:18:32.834Z,100709.07
2019-06-07T02:20:58.917Z,100713.94
2019-06-07T02:23:31.108Z,100718.00
2019-06-07T02:25:58.918Z,100713.91
2019-06-07T02:28:42.160Z,100716.05
2019-06-07T02:31:00.502Z,100711.45
2019-06-07T02:33:35.158Z,100708.25
2019-06-07T02:36:01.714Z,100701.84
2019-06-07T02:38:37.080Z,100701.33
2019-06-07T02:41:01.953Z,100697.52
2019-06-07T02:43:35.089Z,100661.83
2019-06-07T02:46:23.913Z,100704.55
2019-06-07T02:48:39.543Z,100706.14
2019-06-07T02:51:03.994Z,100702.27
2019-06-07T02:53:38.395Z,100703.78
2019-06-07T02:58:41.243Z,100693.22
2019-06-07T03:01:09.059Z,100686.03
2019-06-07T03:03:39.910Z,100683.74
2019-06-07T03:06:11.187Z,100684.09
2019-06-07T03:08:43.058Z,100676.42
2019-06-07T03:11:14.413Z,100683.52
2019-06-07T03:13:47.603Z,100679.39
2019-06-07T03:16:24.553Z,100680.44
2019-06-07T03:18:57.438Z,100682.49
2019-06-07T03:21:31.503Z,100689.18
2019-06-07T03:24:01.201Z,100683.61
2019-06-07T03:26:35.165Z,100684.27
2019-06-07T03:29:01.789Z,100681.22
2019-06-07T03:31:38.071Z,100680.75
2019-06-07T03:34:02.229Z,100691.45
2019-06-07T03:36:32.236Z,100685.56
2019-06-07T03:39:02.052Z,100686.03
2019-06-07T03:41:36.627Z,100688.84
2019-06-07T03:44:02.332Z,100693.17
2019-06-07T03:46:37.519Z,100691.34
2019-06-07T03:49:02.615Z,100688.69
2019-06-07T03:51:32.927Z,100684.52
2019-06-07T03:54:02.610Z,100686.14
2019-06-07T03:56:33.741Z,100690.59
2019-06-07T03:59:02.796Z,100685.84
2019-06-07T04:01:32.337Z,100679.08
2019-06-07T04:04:02.291Z,100676.22
2019-06-07T04:06:33.966Z,100679.01
2019-06-07T04:09:03.030Z,100679.69
2019-06-07T04:11:32.597Z,100676.91
2019-06-07T04:14:02.123Z,100677.66
2019-06-07T04:16:34.994Z,100672.80
2019-06-07T04:19:02.298Z,100669.08
2019-06-07T04:21:31.974Z,100658.41
2019-06-07T04:24:02.110Z,100656.23
2019-06-07T04:26:34.211Z,100655.52
2019-06-07T04:29:32.201Z,100646.84
2019-06-07T04:31:34.491Z,100645.67
2019-06-07T04:34:04.478Z,100636.41
2019-06-07T04:36:47.536Z,100635.84
2019-06-07T04:39:07.315Z,100624.48
2019-06-07T04:41:40.923Z,100615.05
2019-06-07T04:44:11.821Z,100616.08
2019-06-07T04:46:43.035Z,100609.27
2019-06-07T04:49:15.059Z,100600.25
2019-06-07T04:51:45.902Z,100600.31
2019-06-07T04:54:15.331Z,100592.93
2019-06-07T04:56:44.942Z,100591.15
2019-06-07T05:00:00.494Z,100590.85
2019-06-07T05:01:45.229Z,100588.74
2019-06-07T05:04:14.654Z,100586.76
2019-06-07T05:06:43.804Z,100552.00
2019-06-07T05:09:12.969Z,100580.26
2019-06-07T05:11:44.889Z,100584.39
2019-06-07T05:14:12.980Z,100583.38
2019-06-07T05:16:44.463Z,100578.07
2019-06-07T05:19:13.478Z,100580.92
2019-06-07T05:21:59.840Z,100576.64
2019-06-07T05:24:13.889Z,100578.20
2019-06-07T05:26:43.058Z,100580.52
2019-06-07T05:29:12.180Z,100570.06
2019-06-07T05:31:45.305Z,100574.06
2019-06-07T05:34:13.227Z,100561.63
2019-06-07T05:36:45.049Z,100566.30
2019-06-07T05:39:13.512Z,100553.47
2019-06-07T05:41:44.431Z,100556.61
2019-06-07T05:44:15.175Z,100556.49
2019-06-07T05:46:47.339Z,100553.89
2019-06-07T05:49:15.278Z,100556.04
2019-06-07T05:51:45.221Z,100560.67
2019-06-07T05:54:14.693Z,100561.01
2019-06-07T05:56:45.343Z,100559.05
2019-06-07T05:59:14.889Z,100549.17
2019-06-07T06:01:53.164Z,100544.52
2019-06-07T06:04:15.317Z,100542.60
2019-06-07T06:06:47.052Z,100539.68
2019-06-07T06:09:15.319Z,100532.59
2019-06-07T06:11:56.455Z,100526.61
2019-06-07T06:14:15.436Z,100514.77
2019-06-07T06:16:49.276Z,100508.44
2019-06-07T06:19:15.291Z,100517.11
2019-06-07T06:21:46.283Z,100509.80
2019-06-07T06:24:15.589Z,100501.39
2019-06-07T06:26:51.226Z,100506.73
2019-06-07T06:29:15.641Z,100495.02
2019-06-07T06:32:30.211Z,100499.59
2019-06-07T06:34:17.419Z,100499.84
2019-06-07T06:36:50.102Z,100491.67
2019-06-07T06:39:17.721Z,100486.48
2019-06-07T06:41:58.584Z,100482.19
2019-06-07T06:44:17.947Z,100475.73
2019-06-07T06:46:57.076Z,100479.12
2019-06-07T06:49:18.655Z,100472.54
2019-06-07T06:51:53.245Z,100468.02
2019-06-07T06:54:39.404Z,100468.08
2019-06-07T06:56:52.067Z,100462.58
2019-06-07T06:59:37.950Z,100469.64
2019-06-07T07:01:52.657Z,100461.75
2019-06-07T07:04:22.859Z,100457.77
2019-06-07T07:06:53.868Z,100454.16
2019-06-07T07:09:25.024Z,100456.99
2019-06-07T07:12:10.057Z,100451.02
2019-06-07T07:14:25.051Z,100451.64
2019-06-07T07:16:56.626Z,100412.31
2019-06-07T07:19:25.127Z,100441.85
2019-06-07T07:21:55.426Z,100435.25
2019-06-07T07:24:25.340Z,100431.79
2019-06-07T07:26:58.251Z,100434.89
2019-06-07T07:29:25.461Z,100428.30
2019-06-07T07:31:56.490Z,100426.02
2019-06-07T07:34:34.696Z,100419.06
2019-06-07T07:36:59.515Z,100417.42
2019-06-07T07:39:27.492Z,100415.38
2019-06-07T07:42:17.731Z,100407.73
2019-06-07T07:44:27.431Z,100407.63
2019-06-07T07:46:56.829Z,100411.03
2019-06-07T07:49:25.890Z,100395.52
2019-06-07T07:51:58.454Z,100398.31
2019-06-07T07:54:25.877Z,100390.30
2019-06-07T07:56:56.081Z,100380.47
2019-06-07T07:59:41.098Z,100369.94
2019-06-07T08:01:58.695Z,100374.30
2019-06-07T08:05:12.368Z,100369.43
2019-06-07T08:06:59.186Z,100372.81
2019-06-07T08:09:28.846Z,100363.48
2019-06-07T08:12:01.860Z,100359.13
2019-06-07T08:14:29.103Z,100352.47
2019-06-07T08:16:59.308Z,100344.17
2019-06-07T08:19:28.757Z,100345.48
2019-06-07T08:22:00.072Z,100356.59
2019-06-07T08:24:29.182Z,100362.30
2019-06-07T08:27:20.132Z,100353.79
2019-06-07T08:29:44.416Z,100361.39
2019-06-07T08:32:00.917Z,100345.11
2019-06-07T08:34:30.504Z,100341.44
2019-06-07T08:37:01.969Z,100340.66
2019-06-07T08:39:30.793Z,100335.06
2019-06-07T08:42:14.780Z,100323.27
2019-06-07T08:44:30.806Z,100326.55
2019-06-07T08:47:18.523Z,100317.03
2019-06-07T08:49:31.021Z,100309.54
2019-06-07T08:52:10.069Z,100307.12
2019-06-07T08:54:31.232Z,100302.38
2019-06-07T08:57:16.807Z,100288.75
2019-06-07T08:59:31.766Z,100294.53
2019-06-07T09:02:06.572Z,100289.55
2019-06-07T09:04:32.123Z,100276.49
2019-06-07T09:07:08.914Z,100268.69
2019-06-07T09:09:32.567Z,100263.69
2019-06-07T09:12:08.115Z,100264.83
2019-06-07T09:14:32.815Z,100270.06
2019-06-07T09:17:11.021Z,100255.94
2019-06-07T09:19:33.010Z,100242.16
2019-06-07T09:22:08.155Z,100240.57
2019-06-07T09:24:33.707Z,100228.38
2019-06-07T09:27:07.557Z,100223.30
2019-06-07T09:29:34.944Z,100208.87
2019-06-07T09:32:10.194Z,100205.63
2019-06-07T09:34:35.282Z,100217.92
2019-06-07T09:37:54.143Z,100214.77
2019-06-07T09:39:37.535Z,100207.38
2019-06-07T09:42:11.880Z,100216.95
2019-06-07T09:44:37.941Z,100193.99
2019-06-07T09:47:22.291Z,100181.23
2019-06-07T09:49:37.895Z,100182.69
2019-06-07T09:52:10.438Z,100178.19
2019-06-07T09:57:16.786Z,100174.05
2019-06-07T09:59:39.921Z,100164.78
2019-06-07T10:02:13.613Z,100161.62
2019-06-07T10:04:41.411Z,100159.38
2019-06-07T10:07:30.190Z,100156.30
2019-06-07T10:10:09.913Z,100157.05
2019-06-07T10:12:12.625Z,100157.95
2019-06-07T10:14:45.099Z,100151.66
2019-06-07T10:17:12.421Z,100144.97
2019-06-07T10:19:41.631Z,100148.34
2019-06-07T10:22:10.730Z,100142.29
2019-06-07T10:24:39.937Z,100133.56
2019-06-07T10:27:10.067Z,100132.37
2019-06-07T10:29:39.467Z,100124.28
2019-06-07T10:32:09.153Z,100131.77
2019-06-07T10:34:38.698Z,100138.49
2019-06-07T10:37:11.178Z,100130.41
2019-06-07T10:39:48.031Z,100127.12
2019-06-07T10:42:09.738Z,100130.63
2019-06-07T10:44:39.069Z,100125.61
2019-06-07T10:47:08.280Z,100112.51
2019-06-07T10:49:38.034Z,100118.72
2019-06-07T10:52:08.525Z,100126.93
2019-06-07T10:54:37.936Z,100121.19
2019-06-07T10:57:10.932Z,100119.14
2019-06-07T10:59:37.821Z,100110.94
2019-06-07T11:02:07.965Z,100109.77
2019-06-07T11:04:37.616Z,100103.14
2019-06-07T11:07:08.119Z,100097.02
2019-06-07T11:09:37.387Z,100096.46
2019-06-07T11:12:06.572Z,100107.62
2019-06-07T11:14:35.607Z,100106.40
2019-06-07T11:17:05.164Z,100103.33
2019-06-07T11:19:34.549Z,100091.87
2019-06-07T11:22:03.631Z,100087.55
2019-06-07T11:24:32.699Z,100074.46
2019-06-07T11:27:01.712Z,100055.34
2019-06-07T11:29:31.145Z,100050.34
2019-06-07T11:32:00.195Z,100034.16
2019-06-07T11:34:29.354Z,100023.23
2019-06-07T11:36:58.427Z,100010.95
2019-06-07T11:39:27.486Z,100022.23
2019-06-07T11:41:56.514Z,100028.43
2019-06-07T11:44:25.604Z,100024.31
2019-06-07T11:46:54.695Z,100021.44
2019-06-07T11:49:23.867Z,100033.98
2019-06-07T11:51:52.853Z,100028.27
2019-06-07T11:54:21.891Z,100032.30
2019-06-07T11:56:51.069Z,100020.80
2019-06-07T11:59:20.502Z,100030.61
2019-06-07T12:01:49.903Z,100017.32
2019-06-07T12:04:32.377Z,100025.72
2019-06-07T12:06:49.736Z,100017.13
2019-06-07T12:09:18.869Z,100016.73
2019-06-07T12:11:48.170Z,99998.27
2019-06-07T12:14:19.212Z,100007.10
2019-06-07T12:16:48.239Z,99998.98
2019-06-07T12:19:17.672Z,100022.94
2019-06-07T12:21:46.813Z,100011.85
2019-06-07T12:24:16.271Z,100007.01
2019-06-07T12:26:45.656Z,100024.03
2019-06-07T12:29:14.937Z,99995.05
2019-06-07T12:31:44.370Z,99981.83
2019-06-07T12:34:13.425Z,99971.48
2019-06-07T12:36:42.481Z,99966.98
2019-06-07T12:39:11.883Z,99961.66
2019-06-07T12:41:41.441Z,99974.89
2019-06-07T12:44:10.496Z,99992.55
2019-06-07T12:46:39.563Z,99986.81
2019-06-07T12:49:08.893Z,100001.05
2019-06-07T12:51:37.944Z,99984.70
2019-06-07T12:54:07.156Z,99976.00
2019-06-07T12:56:36.213Z,99983.98
2019-06-07T12:59:05.741Z,99979.00
2019-06-07T13:01:34.853Z,99986.47
2019-06-07T13:04:03.884Z,99984.66
2019-06-07T13:06:33.180Z,99980.92
2019-06-07T13:09:02.214Z,99974.69
2019-06-07T13:11:31.901Z,99967.95
2019-06-07T13:14:01.126Z,99981.41
2019-06-07T13:16:30.401Z,99987.09
2019-06-07T13:18:59.413Z,99966.72
2019-06-07T13:21:28.690Z,99980.81
2019-06-07T13:23:58.198Z,99978.81
2019-06-07T13:26:28.571Z,99965.94
2019-06-07T13:28:58.613Z,99965.47
2019-06-07T13:31:27.758Z,99949.90
2019-06-07T13:33:56.988Z,99960.95
2019-06-07T13:36:26.007Z,99953.30
2019-06-07T13:38:55.064Z,99967.56
2019-06-07T13:41:36.802Z,99973.84
2019-06-07T13:43:54.838Z,99957.49
2019-06-07T13:46:25.279Z,99949.22
2019-06-07T13:48:54.507Z,99939.94
2019-06-07T13:51:25.188Z,99933.48
2019-06-07T13:53:54.247Z,99929.04
2019-06-07T13:56:23.994Z,99923.17
2019-06-07T13:58:53.078Z,99926.31
2019-06-07T14:01:22.637Z,99930.56
2019-06-07T14:03:51.731Z,99944.52
2019-06-07T14:06:20.945Z,99951.45
2019-06-07T14:08:49.987Z,99940.72
2019-06-07T14:11:19.466Z,99949.52
2019-06-07T14:13:49.010Z,99940.37
2019-06-07T14:16:18.174Z,99938.52
2019-06-07T14:18:47.191Z,99951.61
2019-06-07T14:21:16.431Z,99944.20
2019-06-07T14:23:49.138Z,99954.19
2019-06-07T14:26:16.324Z,99953.48
2019-06-07T14:28:45.369Z,99940.16
2019-06-07T14:31:14.569Z,99939.98
2019-06-07T14:33:43.672Z,99942.75
2019-06-07T14:36:12.693Z,99937.16
2019-06-07T14:38:41.742Z,99939.65
2019-06-07T14:41:10.771Z,99944.55
2019-06-07T14:43:39.808Z,99945.31
2019-06-07T14:46:09.019Z,99934.90
2019-06-07T14:48:38.038Z,99956.78
2019-06-07T14:51:07.224Z,99951.33
2019-06-07T14:53:36.263Z,99953.88
2019-06-07T14:56:05.874Z,99946.42
2019-06-07T14:58:40.083Z,99939.22
2019-06-07T15:01:06.215Z,99917.00
2019-06-07T15:03:35.260Z,99914.08
2019-06-07T15:06:04.816Z,99910.19
2019-06-07T15:08:34.925Z,99912.52
2019-06-07T15:11:04.400Z,99906.59
2019-06-07T15:13:33.778Z,99903.83
2019-06-07T15:16:03.139Z,99907.61
2019-06-07T15:18:32.188Z,99911.80
2019-06-07T15:21:01.722Z,99919.31
2019-06-07T15:23:31.094Z,99919.02
2019-06-07T15:26:00.508Z,99921.38
2019-06-07T15:28:30.125Z,99929.00
2019-06-07T15:30:59.574Z,99909.06
2019-06-07T15:33:29.712Z,99908.03
2019-06-07T15:35:59.024Z,99933.95
2019-06-07T15:38:29.009Z,99948.42
2019-06-07T15:40:58.207Z,99950.70
2019-06-07T15:43:27.333Z,99955.02
2019-06-07T15:45:56.437Z,99971.11
2019-06-07T15:48:25.542Z,99980.64
2019-06-07T15:50:54.607Z,99997.73
2019-06-07T15:53:23.672Z,100021.17
2019-06-07T15:55:52.689Z,100019.17
2019-06-07T15:58:21.767Z,100010.33
2019-06-07T16:00:51.080Z,100023.91
2019-06-07T16:03:20.125Z,100040.12
2019-06-07T16:05:49.159Z,100041.61
2019-06-07T16:08:19.318Z,100047.23
2019-06-07T16:10:48.539Z,100056.66
2019-06-07T16:13:17.599Z,100073.22
2019-06-07T16:15:46.637Z,100074.44
2019-06-07T16:18:15.660Z,100084.59
2019-06-07T16:20:44.719Z,100117.46
2019-06-07T16:23:13.739Z,100148.92
2019-06-07T16:25:44.247Z,100157.35
2019-06-07T16:28:14.180Z,100163.85
2019-06-07T16:30:43.245Z,100193.84
2019-06-07T16:33:12.309Z,100199.02
2019-06-07T16:35:41.360Z,100220.97
2019-06-07T16:38:10.388Z,100211.98
2019-06-07T16:40:40.309Z,100213.30
2019-06-07T16:43:18.472Z,100225.61
2019-06-07T16:45:40.911Z,100243.56
2019-06-07T16:48:10.107Z,100252.11
2019-06-07T16:50:39.198Z,100255.06
2019-06-07T16:53:08.232Z,100255.67
2019-06-07T16:55:38.624Z,100270.17
2019-06-07T16:58:07.755Z,100304.17
2019-06-07T17:00:38.690Z,100323.84
2019-06-07T17:03:07.643Z,100321.73
2019-06-07T17:05:37.742Z,100329.48
2019-06-07T17:08:07.006Z,100320.24
2019-06-07T17:10:36.113Z,100330.98
2019-06-07T17:13:05.264Z,100326.70
2019-06-07T17:15:34.333Z,100342.02
2019-06-07T17:18:03.359Z,100376.41
2019-06-07T17:20:32.572Z,100371.50
2019-06-07T17:23:01.606Z,100363.53
2019-06-07T17:25:30.735Z,100364.80
2019-06-07T17:27:59.751Z,100356.93
2019-06-07T17:30:29.006Z,100356.59
2019-06-07T17:32:59.579Z,100354.95
2019-06-07T17:35:28.779Z,100359.10
2019-06-07T17:37:57.845Z,100364.39
2019-06-07T17:40:26.907Z,100360.86
2019-06-07T17:42:56.009Z,100363.44
2019-06-07T17:45:25.221Z,100343.30
2019-06-07T17:47:54.283Z,100360.59
2019-06-07T17:50:23.571Z,100375.21
2019-06-07T17:52:52.920Z,100388.40
2019-06-07T17:55:22.047Z,100372.48
2019-06-07T17:57:52.590Z,100379.13
2019-06-07T18:00:33.134Z,100374.23
2019-06-07T18:02:54.864Z,100350.08
2019-06-07T18:05:24.440Z,100361.94
2019-06-07T18:07:55.263Z,100353.39
2019-06-07T18:10:36.086Z,100349.63
2019-06-07T18:13:05.381Z,100346.21
2019-06-07T18:15:42.199Z,100356.83
2019-06-07T18:18:11.971Z,100363.38
2019-06-07T18:20:41.750Z,100361.75
2019-06-07T18:23:11.096Z,100343.97
2019-06-07T18:25:40.304Z,100340.62
2019-06-07T18:28:09.809Z,100341.20
2019-06-07T18:30:39.094Z,100334.72
2019-06-07T18:33:08.192Z,100337.89
2019-06-07T18:35:37.378Z,100334.27
2019-06-07T18:38:06.568Z,100313.39
2019-06-07T18:40:35.772Z,100308.69
2019-06-07T18:43:04.901Z,100327.13
2019-06-07T18:45:33.978Z,100324.81
2019-06-07T18:48:03.015Z,100294.84
2019-06-07T18:50:32.119Z,100249.88
2019-06-07T18:53:01.193Z,100257.37
2019-06-07T18:55:30.300Z,100253.53
2019-06-07T18:57:59.426Z,100249.72
2019-06-07T19:00:31.476Z,100232.48
2019-06-07T19:03:00.633Z,100239.00
2019-06-07T19:05:29.878Z,100221.05
2019-06-07T19:07:59.948Z,100167.22
2019-06-07T19:10:29.219Z,100169.46
2019-06-07T19:13:00.365Z,100170.55
2019-06-07T19:15:31.057Z,100195.88
2019-06-07T19:18:00.878Z,100242.06
2019-06-07T19:20:30.211Z,100273.55
2019-06-07T19:23:00.540Z,100293.56
2019-06-07T19:25:29.762Z,100294.98
2019-06-07T19:27:59.357Z,100308.11
2019-06-07T19:30:29.110Z,100293.69
2019-06-07T19:32:59.690Z,100298.46
2019-06-07T19:35:29.172Z,100283.67
2019-06-07T19:37:58.289Z,100282.92
2019-06-07T19:40:27.338Z,100308.16
2019-06-07T19:42:56.663Z,100342.41
2019-06-07T19:45:30.774Z,100363.59
2019-06-07T19:47:58.625Z,100347.25
2019-06-07T19:50:27.998Z,100347.25
2019-06-07T19:52:57.143Z,100333.81
2019-06-07T19:55:26.602Z,100351.97
2019-06-07T19:57:55.826Z,100369.42
2019-06-07T20:00:25.142Z,100372.81
2019-06-07T20:02:55.739Z,100347.48
2019-06-07T20:05:25.142Z,100357.73
2019-06-07T20:07:54.570Z,100342.55
2019-06-07T20:10:23.655Z,100340.82
2019-06-07T20:12:52.847Z,100349.14
2019-06-07T20:15:29.039Z,100359.85
2019-06-07T20:17:52.721Z,100342.17
2019-06-07T20:20:23.888Z,100336.81
2019-06-07T20:22:52.619Z,100325.14
2019-06-07T20:25:21.894Z,100343.72
2019-06-07T20:27:51.160Z,100347.59
2019-06-07T20:30:21.061Z,100342.63
2019-06-07T20:32:50.251Z,100340.19
2019-06-07T20:35:19.615Z,100335.48
2019-06-07T20:37:48.772Z,100335.51
2019-06-07T20:40:24.210Z,100342.76
2019-06-07T20:42:52.040Z,100358.33
2019-06-07T20:45:33.212Z,100346.72
2019-06-07T20:47:51.960Z,100355.92
2019-06-07T20:50:21.201Z,100363.02
2019-06-07T20:52:50.315Z,100334.92
2019-06-07T20:55:19.931Z,100332.39
2019-06-07T20:57:49.079Z,100333.41
2019-06-07T21:00:22.469Z,100342.98
2019-06-07T21:02:51.857Z,100359.09
2019-06-07T21:05:21.008Z,100348.80
2019-06-07T21:07:50.058Z,100341.78
2019-06-07T21:10:19.235Z,100341.78
2019-06-07T21:12:48.249Z,100342.63
2019-06-07T21:15:17.764Z,100328.41
2019-06-07T21:17:47.095Z,100325.17
2019-06-07T21:20:16.595Z,100336.23
2019-06-07T21:22:45.761Z,100367.00
2019-06-07T21:25:15.767Z,100349.34
2019-06-07T21:27:45.184Z,100366.16
2019-06-07T21:30:14.765Z,100368.59
2019-06-07T21:32:43.890Z,100364.58
2019-06-07T21:35:13.147Z,100374.73
2019-06-07T21:37:42.183Z,100381.56
2019-06-07T21:40:14.624Z,100377.52
2019-06-07T21:42:43.854Z,100375.16
2019-06-07T21:45:13.712Z,100381.47
2019-06-07T21:47:42.957Z,100386.30
2019-06-07T21:50:13.730Z,100377.59
2019-06-07T21:52:42.749Z,100381.29
2019-06-07T21:55:13.760Z,100378.68
2019-06-07T21:57:42.815Z,100382.70
2019-06-07T22:00:18.487Z,100407.98
2019-06-07T22:02:47.742Z,100402.00
2019-06-07T22:05:16.844Z,100393.05
2019-06-07T22:07:46.123Z,100413.33
2019-06-07T22:10:15.539Z,100402.48
2019-06-07T22:12:44.636Z,100407.30
2019-06-07T22:15:31.085Z,100409.66
2019-06-07T22:17:44.819Z,100398.78
2019-06-07T22:20:14.742Z,100403.96
2019-06-07T22:22:44.018Z,100409.02
2019-06-07T22:25:13.378Z,100392.80
2019-06-07T22:27:45.150Z,100424.98
2019-06-07T22:30:14.670Z,100421.61
2019-06-07T22:32:43.721Z,100423.50
2019-06-07T22:35:16.084Z,100434.91
2019-06-07T22:37:45.125Z,100451.66
2019-06-07T22:40:14.655Z,100452.30
2019-06-07T22:42:43.923Z,100456.49
2019-06-07T22:45:14.677Z,100457.69
2019-06-07T22:47:43.924Z,100460.25
2019-06-07T22:50:14.466Z,100460.91
2019-06-07T22:52:43.605Z,100466.78
2019-06-07T22:55:13.912Z,100441.09
2019-06-07T22:57:59.639Z,100444.59
2019-06-07T23:00:30.440Z,100436.98
2019-06-07T23:03:01.274Z,100443.36
2019-06-07T23:05:36.375Z,100442.73
2019-06-07T23:08:05.550Z,100444.30
2019-06-07T23:10:34.673Z,100460.52
2019-06-07T23:13:06.456Z,100455.17
2019-06-07T23:15:35.477Z,100452.00
2019-06-07T23:18:04.790Z,100443.53
2019-06-07T23:20:34.495Z,100464.13
2019-06-07T23:23:03.733Z,100463.56
2019-06-07T23:25:32.787Z,100458.08
2019-06-07T23:28:04.953Z,100463.48
2019-06-07T23:30:34.184Z,100471.83
2019-06-07T23:33:03.372Z,100468.83
2019-06-07T23:35:32.783Z,100471.36
2019-06-07T23:38:02.461Z,100471.83
2019-06-07T23:40:31.774Z,100467.50
2019-06-07T23:43:02.734Z,100478.22
2019-06-07T23:45:32.034Z,100430.25
2019-06-07T23:48:01.566Z,100488.79
2019-06-07T23:50:31.049Z,100438.25
2019-06-07T23:53:03.562Z,100483.38
2019-06-07T23:55:32.743Z,100488.53
2019-06-07T23:58:02.047Z,100494.94
